Time;durP1;ratioP1;P1;durP2;ratioP2;P2;SDS_P1;SDS_P2;PMS_P1;PMS_P2;Temp;Humidity;BMP_temperature;BMP_pressure;BME280_temperature;BME280_humidity;BME280_pressure;Samples;Min_cycle;Max_cycle;Signal;HPM_P1;HPM_P2
2020/12/02 00:01:03;;;;;;;15.40;5.22;;;;;;;;;;5074620;28;20033;-78
2020/12/02 00:03:48;;;;;;;26.55;10.40;;;6.50;62.60;;;;;;5074752;28;20813;-78
2020/12/02 00:06:13;;;;;;;25.75;11.75;;;6.40;86.10;;;;;;5063555;28;20028;-79
2020/12/02 00:08:39;;;;;;;22.35;8.50;;;;;;;;;;5072411;28;20111;-78
2020/12/02 00:11:10;;;;;;;9.90;6.22;;;5.80;86.80;;;;;;5072613;28;20039;-79
2020/12/02 00:13:40;;;;;;;19.63;8.65;;;6.30;64.20;;;;;;5073762;28;20032;-78
2020/12/02 00:16:07;;;;;;;16.48;6.72;;;6.00;86.30;;;;;;5073518;28;20029;-78
2020/12/02 00:18:36;;;;;;;6.32;3.38;;;6.30;87.40;;;;;;5064477;28;20106;-78
2020/12/02 00:21:04;;;;;;;10.98;5.38;;;6.30;87.50;;;;;;5069310;28;20079;-78
2020/12/02 00:23:30;;;;;;;9.38;4.78;;;;;;;;;;5062341;28;20446;-78
2020/12/02 00:25:56;;;;;;;11.65;5.35;;;;;;;;;;5073862;28;20058;-78
2020/12/02 00:28:22;;;;;;;11.35;6.70;;;;;;;;;;5068469;28;20082;-78
2020/12/02 00:30:48;;;;;;;11.40;5.78;;;6.40;87.80;;;;;;5071090;28;20071;-78
2020/12/02 00:33:20;;;;;;;15.95;5.90;;;6.20;64.40;;;;;;5069191;28;20397;-78
2020/12/02 00:35:46;;;;;;;9.20;4.82;;;;;;;;;;5073912;28;20418;-79
2020/12/02 00:38:14;;;;;;;6.75;2.78;;;6.20;65.60;;;;;;5073585;28;20024;-78
2020/12/02 00:40:46;;;;;;;4.78;2.90;;;;;;;;;;5071859;28;20035;-78
2020/12/02 00:43:22;;;;;;;10.70;4.28;;;6.40;64.40;;;;;;5073860;28;20025;-78
2020/12/02 00:45:49;;;;;;;15.48;5.25;;;6.20;88.40;;;;;;5073873;28;20260;-79
2020/12/02 00:48:16;;;;;;;7.40;4.72;;;;;;;;;;5060810;28;20021;-79
2020/12/02 00:50:43;;;;;;;11.68;4.93;;;;;;;;;;5067491;28;20470;-77
2020/12/02 00:53:12;;;;;;;13.88;6.68;;;6.60;64.50;;;;;;5074691;28;20093;-78
2020/12/02 00:55:39;;;;;;;16.95;8.18;;;6.60;63.90;;;;;;5073362;28;20451;-78
2020/12/02 00:58:09;;;;;;;11.57;6.13;;;6.60;63.20;;;;;;5074244;28;20029;-78
2020/12/02 01:00:38;;;;;;;7.78;5.90;;;6.40;63.70;;;;;;5072309;28;20017;-78
2020/12/02 01:03:21;;;;;;;11.85;5.82;;;6.50;77.20;;;;;;5071871;28;20040;-79
2020/12/02 01:05:48;;;;;;;11.43;4.15;;;7.10;86.60;;;;;;5066561;28;20017;-77
2020/12/02 01:08:34;;;;;;;9.45;5.50;;;;;;;;;;5074522;28;20021;-78
2020/12/02 01:11:06;;;;;;;17.00;7.10;;;6.60;62.80;;;;;;5069187;28;20039;-78
2020/12/02 01:13:33;;;;;;;10.85;4.22;;;6.80;62.40;;;;;;5072278;28;20024;-78
2020/12/02 01:16:06;;;;;;;14.68;7.40;;;6.90;62.30;;;;;;5072898;28;20024;-78
2020/12/02 01:18:32;;;;;;;9.85;5.57;;;;;;;;;;5072981;28;20052;-78
2020/12/02 01:21:22;;;;;;;17.13;6.85;;;6.80;62.50;;;;;;5071088;28;20401;-78
2020/12/02 01:23:56;;;;;;;10.57;5.00;;;6.90;62.20;;;;;;5072219;28;20025;-78
2020/12/02 01:26:25;;;;;;;7.13;4.22;;;6.80;61.80;;;;;;5061318;28;20619;-78
2020/12/02 01:28:55;;;;;;;10.52;5.80;;;6.60;62.80;;;;;;5072395;28;20906;-78
2020/12/02 01:31:24;;;;;;;13.65;5.13;;;6.70;63.20;;;;;;5068437;28;20035;-79
2020/12/02 01:33:50;;;;;;;11.68;6.43;;;6.50;63.00;;;;;;5072595;28;20666;-78
2020/12/02 01:36:21;;;;;;;11.23;6.68;;;6.50;64.40;;;;;;5073505;28;20221;-78
2020/12/02 01:38:47;;;;;;;10.10;5.20;;;7.30;64.10;;;;;;5072236;28;20051;-78
2020/12/02 01:41:13;;;;;;;10.32;5.25;;;;;;;;;;5071569;28;20401;-78
2020/12/02 01:43:39;;;;;;;15.48;5.00;;;;;;;;;;5072041;28;20029;-78
2020/12/02 01:46:38;;;;;;;8.30;4.03;;;6.70;63.70;;;;;;5073449;28;20033;-79
2020/12/02 01:49:34;;;;;;;8.05;4.35;;;6.60;64.50;;;;;;5060565;28;20024;-78
2020/12/02 01:52:11;;;;;;;12.73;5.47;;;6.50;64.40;;;;;;5068761;28;20028;-77
2020/12/02 01:54:51;;;;;;;13.43;4.25;;;6.70;88.50;;;;;;5073550;28;20040;-78
2020/12/02 01:57:33;;;;;;;4.93;2.65;;;6.40;66.20;;;;;;5074009;28;20021;-78
2020/12/02 02:00:27;;;;;;;3.85;2.90;;;4.40;65.90;;;;;;5071698;28;20362;-79
2020/12/02 02:03:02;;;;;;;3.85;2.78;;;6.20;75.80;;;;;;5060022;28;20036;-78
2020/12/02 02:05:34;;;;;;;6.15;3.72;;;6.40;67.30;;;;;;5072110;28;20401;-79
2020/12/02 02:08:00;;;;;;;5.25;2.67;;;;;;;;;;5072378;28;20028;-78
2020/12/02 02:10:26;;;;;;;3.60;1.83;;;;;;;;;;5068766;28;20108;-78
2020/12/02 02:12:55;;;;;;;4.18;2.05;;;6.40;90.60;;;;;;5070801;28;20150;-77
2020/12/02 02:15:45;;;;;;;4.88;2.13;;;6.30;68.60;;;;;;5071747;28;20025;-79
2020/12/02 02:18:16;;;;;;;2.45;1.50;;;6.20;68.30;;;;;;5068688;28;20109;-79
2020/12/02 02:20:46;;;;;;;2.67;1.52;;;6.10;91.40;;;;;;5068303;28;20473;-78
2020/12/02 02:23:14;;;;;;;3.90;1.67;;;6.00;70.20;;;;;;5073558;28;20025;-79
2020/12/02 02:25:53;;;;;;;6.90;2.58;;;5.90;71.50;;;;;;5072724;28;20362;-79
2020/12/02 02:28:19;;;;;;;5.30;2.53;;;;;;;;;;5073410;28;20489;-78
2020/12/02 02:30:45;;;;;;;9.27;3.15;;;;;;;;;;5067988;28;20023;-79
2020/12/02 02:33:11;;;;;;;10.18;3.17;;;;;;;;;;5073110;28;20055;-78
2020/12/02 02:35:38;;;;;;;17.95;3.17;;;;;;;;;;5072768;28;20020;-78
2020/12/02 02:38:05;;;;;;;8.63;3.53;;;5.70;74.30;;;;;;5071789;28;20021;-78
2020/12/02 02:40:31;;;;;;;7.53;2.25;;;;;;;;;;5069755;28;20013;-78
2020/12/02 02:43:03;;;;;;;16.58;3.45;;;5.70;74.40;;;;;;5070792;28;20028;-78
2020/12/02 02:45:29;;;;;;;6.15;1.83;;;;;;;;;;5070544;28;20025;-78
2020/12/02 02:47:57;;;;;;;4.47;1.92;;;5.30;76.70;;;;;;5072110;28;20028;-78
2020/12/02 02:50:25;;;;;;;5.88;2.25;;;5.10;77.60;;;;;;5068926;28;20024;-79
2020/12/02 02:52:52;;;;;;;;;;;5.00;79.30;;;;;;5071736;28;20059;-78
2020/12/02 02:55:24;;;;;;;3.97;1.75;;;4.80;79.60;;;;;;5072140;28;19904;-78
2020/12/02 02:57:50;;;;;;;5.78;2.40;;;;;;;;;;5072649;28;20025;-78
2020/12/02 03:00:18;;;;;;;3.70;2.40;;;;;;;;;;5069218;28;20025;-78
2020/12/02 03:02:44;;;;;;;4.93;1.60;;;;;;;;;;5070897;28;20033;-79
2020/12/02 03:05:10;;;;;;;2.50;1.45;;;;;;;;;;5068998;28;20025;-78
2020/12/02 03:07:39;;;;;;;3.00;0.77;;;4.60;82.30;;;;;;5070018;28;20409;-79
2020/12/02 03:10:05;;;;;;;10.43;2.65;;;;;;;;;;5069276;28;20029;-78
2020/12/02 03:12:32;;;;;;;7.35;3.70;;;4.60;84.30;;;;;;5061911;28;20028;-77
2020/12/02 03:14:58;;;;;;;23.92;5.40;;;4.70;99.30;;;;;;5071052;28;20033;-78
2020/12/02 03:17:25;;;;;;;21.10;3.70;;;4.50;87.90;;;;;;5072028;28;20153;-79
2020/12/02 03:20:10;;;;;;;20.40;4.55;;;4.40;90.70;;;;;;5069226;28;20024;-77
2020/12/02 03:22:36;;;;;;;17.77;4.10;;;;;;;;;;5064685;28;20060;-79
2020/12/02 03:25:02;;;;;;;17.08;4.25;;;;;;;;;;5070930;28;20033;-78
2020/12/02 03:27:28;;;;;;;10.00;3.65;;;;;;;;;;5071881;28;20025;-79
2020/12/02 03:29:54;;;;;;;11.02;4.10;;;;;;;;;;5070044;28;20039;-79
2020/12/02 03:32:21;;;;;;;4.80;2.83;;;;;;;;;;5070411;28;20036;-78
2020/12/02 03:34:47;;;;;;;7.32;3.10;;;;;;;;;;5071841;28;20071;-78
2020/12/02 03:37:13;;;;;;;6.22;2.63;;;;;;;;;;5069770;28;20017;-78
2020/12/02 03:39:39;;;;;;;10.55;4.72;;;;;;;;;;5070199;28;20058;-77
2020/12/02 03:42:05;;;;;;;6.57;3.97;;;;;;;;;;5069309;28;20052;-78
2020/12/02 03:44:31;;;;;;;12.82;4.53;;;;;;;;;;5070999;28;20028;-79
2020/12/02 03:46:57;;;;;;;9.43;3.63;;;;;;;;;;5071964;28;20035;-78
2020/12/02 03:49:23;;;;;;;9.48;3.97;;;;;;;;;;5069370;28;20028;-78
2020/12/02 03:51:49;;;;;;;9.63;4.30;;;;;;;;;;5071025;28;20029;-78
2020/12/02 03:54:15;;;;;;;10.18;5.03;;;;;;;;;;5071615;28;20043;-78
2020/12/02 03:56:41;;;;;;;18.25;6.13;;;;;;;;;;5057113;28;20028;-79
2020/12/02 03:59:07;;;;;;;10.65;4.68;;;;;;;;;;5071396;28;20028;-78
2020/12/02 04:01:33;;;;;;;8.88;4.90;;;;;;;;;;5068260;28;20036;-79
2020/12/02 04:03:59;;;;;;;19.73;4.32;;;;;;;;;;5072127;28;20036;-78
2020/12/02 04:06:25;;;;;;;17.20;4.43;;;;;;;;;;5071911;28;20035;-78
2020/12/02 04:08:52;;;;;;;10.25;3.85;;;;;;;;;;5070579;28;20037;-78
2020/12/02 04:11:18;;;;;;;11.60;4.90;;;;;;;;;;5067697;28;20020;-78
2020/12/02 04:13:44;;;;;;;10.82;3.33;;;;;;;;;;5070200;28;20078;-79
2020/12/02 04:16:10;;;;;;;12.27;5.35;;;;;;;;;;5070924;28;20027;-78
2020/12/02 04:18:36;;;;;;;10.30;3.75;;;;;;;;;;5068833;28;20060;-78
2020/12/02 04:21:02;;;;;;;9.63;4.47;;;4.20;84.80;;;;;;5069377;28;20032;-78
2020/12/02 04:23:28;;;;;;;6.90;4.40;;;;;;;;;;5062215;28;20035;-79
2020/12/02 04:25:54;;;;;;;9.00;4.35;;;;;;;;;;5071886;28;20056;-79
2020/12/02 04:28:20;;;;;;;7.38;3.53;;;;;;;;;;5070679;28;20028;-79
2020/12/02 04:30:47;;;;;;;4.65;2.40;;;4.10;84.00;;;;;;5068889;28;20078;-78
2020/12/02 04:33:13;;;;;;;6.28;3.10;;;;;;;;;;5071037;28;20069;-78
2020/12/02 04:35:39;;;;;;;4.90;2.65;;;;;;;;;;5070240;28;20546;-78
2020/12/02 04:38:08;;;;;;;7.22;3.83;;;4.20;81.80;;;;;;5064070;28;20070;-78
2020/12/02 04:40:36;;;;;;;10.00;3.97;;;4.10;83.50;;;;;;5070259;28;20013;-78
2020/12/02 04:43:12;;;;;;;8.63;3.35;;;4.20;82.00;;;;;;5072945;28;20021;-77
2020/12/02 04:45:38;;;;;;;10.82;4.22;;;;;;;;;;5074935;28;20501;-78
2020/12/02 04:48:11;;;;;;;9.10;3.08;;;4.20;81.50;;;;;;5074739;28;20024;-77
2020/12/02 04:55:50;;;;;;;8.30;4.65;;;;;;;;;;1319929;26;20911;-78
2020/12/02 04:58:22;;;;;;;;;;;4.20;80.00;;;;;;5012524;28;20034;-78
2020/12/02 05:00:48;;;;;;;3.22;2.40;;;;;;;;;;5012632;28;19960;-77
2020/12/02 05:03:15;;;;;;;3.17;2.35;;;4.00;82.30;;;;;;5015658;28;20026;-77
2020/12/02 05:05:42;;;;;;;6.53;3.13;;;4.30;98.00;;;;;;5015521;28;20032;-78
2020/12/02 05:08:21;;;;;;;4.67;2.97;;;3.90;97.10;;;;;;5014271;28;20070;-77
2020/12/02 05:10:47;;;;;;;7.40;3.92;;;;;;;;;;5012550;28;20045;-77
2020/12/02 05:13:13;;;;;;;6.05;2.92;;;;;;;;;;5014765;28;20025;-78
2020/12/02 05:15:39;;;;;;;6.60;3.17;;;;;;;;;;5015143;28;20603;-77
2020/12/02 05:18:14;;;;;;;4.18;1.85;;;4.20;96.00;;;;;;5012795;28;20045;-78
2020/12/02 05:20:41;;;;;;;8.95;3.42;;;4.30;77.90;;;;;;5011414;28;20022;-77
2020/12/02 05:23:26;;;;;;;16.88;4.13;;;4.40;78.10;;;;;;5014490;28;20020;-77
2020/12/02 05:25:52;;;;;;;5.65;2.72;;;;;;;;;;5008276;28;20032;-78
2020/12/02 05:28:39;;;;;;;4.53;3.10;;;4.20;78.80;;;;;;5014412;28;20022;-77
2020/12/02 05:31:04;;;;;;;4.38;3.20;;;4.50;85.10;;;;;;5007500;28;20073;-77
2020/12/02 05:33:32;;;;;;;7.55;3.40;;;4.40;77.10;;;;;;5002016;28;20497;-77
2020/12/02 05:35:59;;;;;;;;;;;4.30;77.70;;;;;;5014070;28;20052;-78
2020/12/02 05:38:36;;;;;;;6.43;3.00;;;4.20;79.20;;;;;;5012474;28;19912;-77
2020/12/02 05:41:04;;;;;;;7.60;3.60;;;4.10;79.00;;;;;;5007339;28;20041;-77
2020/12/02 05:44:08;;;;;;;4.53;2.38;;;4.10;80.10;;;;;;5013431;28;20033;-78
2020/12/02 05:46:44;;;;;;;11.70;3.25;;;4.50;89.30;;;;;;5006564;28;20161;-78
2020/12/02 05:49:31;;;;;;;10.40;2.63;;;4.30;78.00;;;;;;5012534;28;20026;-77
2020/12/02 05:51:57;;;;;;;4.55;3.63;;;;;;;;;;5011392;28;20050;-78
2020/12/02 05:54:24;;;;;;;3.35;2.45;;;4.30;77.00;;;;;;5015789;28;20076;-78
2020/12/02 05:56:50;;;;;;;9.25;3.55;;;;;;;;;;5012448;28;20100;-77
2020/12/02 05:59:17;;;;;;;3.88;2.35;;;;;;;;;;5012966;28;20069;-77
2020/12/02 06:01:45;;;;;;;7.10;1.98;;;4.30;76.40;;;;;;5012431;28;20038;-77
2020/12/02 06:04:12;;;;;;;6.55;2.20;;;4.30;76.20;;;;;;5002955;28;20045;-77
2020/12/02 06:06:38;;;;;;;;;;;4.30;76.40;;;;;;5012922;28;20117;-78
2020/12/02 06:09:04;;;;;;;5.40;2.38;;;5.30;75.90;;;;;;5012354;28;20004;-78
2020/12/02 06:11:36;;;;;;;6.90;2.55;;;4.30;94.70;;;;;;5015318;28;20021;-77
2020/12/02 06:14:14;;;;;;;2.17;1.60;;;4.80;95.00;;;;;;5013395;28;20029;-78
2020/12/02 06:16:45;;;;;;;6.03;2.58;;;4.50;75.00;;;;;;5012931;28;20010;-77
2020/12/02 06:19:11;;;;;;;4.03;1.85;;;;;;;;;;5009587;28;20501;-77
2020/12/02 06:21:44;;;;;;;3.33;1.63;;;4.50;74.10;;;;;;5008334;28;20032;-78
2020/12/02 06:24:32;;;;;;;4.43;2.65;;;4.80;73.00;;;;;;5011218;28;20021;-77
2020/12/02 06:26:59;;;;;;;2.20;1.38;;;;;;;;;;4999950;28;20042;-78
2020/12/02 06:29:36;;;;;;;5.00;2.53;;;5.10;70.30;;;;;;5010844;28;20065;-78
2020/12/02 06:32:16;;;;;;;4.95;2.22;;;5.30;69.30;;;;;;5003800;28;20397;-77
2020/12/02 06:34:42;;;;;;;3.35;1.83;;;;;;;;;;5012924;28;20026;-78
2020/12/02 06:37:21;;;;;;;4.45;2.42;;;5.10;69.60;;;;;;5012017;28;20037;-77
2020/12/02 06:39:59;;;;;;;3.45;2.35;;;;;;;;;;5010880;28;20445;-77
2020/12/02 06:42:34;;;;;;;7.07;2.85;;;5.50;91.30;;;;;;5010159;28;20489;-77
2020/12/02 06:45:17;;;;;;;3.92;2.35;;;5.20;69.10;;;;;;5011247;28;20029;-77
2020/12/02 06:47:49;;;;;;;3.78;3.13;;;;;;;;;;5012635;28;20026;-77
2020/12/02 06:50:27;;;;;;;6.00;2.50;;;5.40;67.30;;;;;;5011679;28;20022;-77
2020/12/02 06:52:56;;;;;;;4.35;2.28;;;;;;;;;;4996218;28;20034;-77
2020/12/02 06:55:26;;;;;;;8.68;4.43;;;5.60;87.10;;;;;;5010706;28;20553;-78
2020/12/02 06:57:58;;;;;;;5.82;2.47;;;6.00;65.50;;;;;;5018309;28;20057;-77
2020/12/02 07:00:31;;;;;;;3.55;2.58;;;5.70;65.60;;;;;;5005811;28;20026;-77
2020/12/02 07:03:02;;;;;;;5.30;2.35;;;5.80;66.00;;;;;;5011251;28;20104;-77
2020/12/02 07:05:34;;;;;;;4.55;2.58;;;5.50;89.40;;;;;;5011810;28;20022;-77
2020/12/02 07:08:21;;;;;;;3.60;1.63;;;6.00;89.10;;;;;;5012602;28;20022;-77
2020/12/02 07:10:58;;;;;;;9.48;2.38;;;6.10;65.00;;;;;;5009396;28;20444;-77
2020/12/02 07:13:25;;;;;;;6.57;3.05;;;6.10;64.80;;;;;;5010565;28;20121;-77
2020/12/02 07:15:51;;;;;;;7.78;3.15;;;;;;;;;;5011251;28;20026;-77
2020/12/02 07:18:20;;;;;;;7.55;2.72;;;;;;;;;;5020755;28;20030;-77
2020/12/02 07:20:49;;;;;;;13.45;3.70;;;6.40;63.50;;;;;;5009356;28;20057;-77
2020/12/02 07:23:19;;;;;;;12.30;5.57;;;6.40;85.90;;;;;;5012052;28;20029;-76
2020/12/02 07:25:45;;;;;;;27.20;9.65;;;6.90;86.10;;;;;;5011776;28;20474;-77
2020/12/02 07:28:18;;;;;;;16.98;7.80;;;6.50;62.20;;;;;;5011671;28;20456;-78
2020/12/02 07:30:46;;;;;;;17.77;8.32;;;;;;;;;;5008592;28;20448;-76
2020/12/02 07:33:28;;;;;;;9.15;4.40;;;6.40;62.10;;;;;;4998259;28;20037;-76
2020/12/02 07:36:14;;;;;;;3.08;1.60;;;6.20;62.70;;;;;;5020884;28;20092;-77
2020/12/02 07:38:41;;;;;;;3.85;1.95;;;5.90;74.40;;;;;;5010524;28;20037;-77
2020/12/02 07:41:17;;;;;;;4.78;2.92;;;5.80;87.30;;;;;;5007811;28;20034;-76
2020/12/02 07:43:47;;;;;;;2.40;1.38;;;5.40;65.40;;;;;;5019757;28;20038;-76
2020/12/02 07:46:13;;;;;;;1.42;1.20;;;;;;;;;;5010391;28;20026;-76
2020/12/02 07:48:40;;;;;;;2.38;1.58;;;5.10;66.10;;;;;;5008060;28;20037;-76
2020/12/02 07:51:24;;;;;;;2.08;1.55;;;5.30;82.10;;;;;;5009193;28;20115;-77
2020/12/02 07:54:00;;;;;;;2.45;1.48;;;;;;;;;;4997765;28;20151;-77
2020/12/02 07:56:32;;;;;;;2.33;1.58;;;5.30;66.60;;;;;;5003998;28;20426;-77
2020/12/02 07:59:24;;;;;;;6.15;1.90;;;;;;;;;;5008597;28;20042;-77
2020/12/02 08:02:02;;;;;;;2.10;1.67;;;5.70;64.40;;;;;;5006261;28;20050;-77
2020/12/02 08:04:36;;;;;;;3.38;2.05;;;5.60;66.10;;;;;;5011949;28;20022;-77
2020/12/02 08:07:09;;;;;;;4.30;2.88;;;;;;;;;;5012540;28;20053;-77
2020/12/02 08:09:38;;;;;;;3.97;1.77;;;5.50;66.70;;;;;;5015709;28;20264;-77
2020/12/02 08:12:11;;;;;;;5.35;2.13;;;5.60;66.20;;;;;;5011331;28;20411;-76
2020/12/02 08:14:58;;;;;;;30.08;4.05;;;5.40;67.30;;;;;;5023662;28;20026;-76
2020/12/02 08:17:26;;;;;;;4.15;2.33;;;5.40;67.10;;;;;;5011524;28;20030;-77
2020/12/02 08:19:58;;;;;;;3.70;2.13;;;5.00;69.10;;;;;;5010007;28;20022;-77
2020/12/02 08:22:39;;;;;;;4.00;2.55;;;5.10;68.70;;;;;;5014697;28;20034;-77
2020/12/02 08:25:37;;;;;;;5.35;2.45;;;5.20;68.30;;;;;;5015256;28;20057;-77
2020/12/02 08:28:09;;;;;;;3.65;1.88;;;5.20;68.10;;;;;;5014790;28;20084;-77
2020/12/02 08:30:36;;;;;;;3.42;2.00;;;;;;;;;;5010942;28;20040;-77
2020/12/02 08:33:15;;;;;;;4.70;1.83;;;5.30;67.80;;;;;;5014747;28;20052;-77
2020/12/02 08:35:49;;;;;;;4.10;3.00;;;5.40;73.90;;;;;;5014077;28;20084;-78
2020/12/02 08:38:29;;;;;;;3.58;1.75;;;5.40;67.80;;;;;;5015167;28;20026;-77
2020/12/02 08:41:00;;;;;;;5.07;2.35;;;5.40;81.80;;;;;;5019136;28;20092;-77
2020/12/02 08:43:26;;;;;;;8.38;2.25;;;;;;;;;;5012112;28;20036;-77
2020/12/02 08:46:15;;;;;;;6.57;2.40;;;5.60;66.40;;;;;;5014464;28;20033;-76
2020/12/02 08:48:42;;;;;;;3.53;2.03;;;;;;;;;;5011716;28;20083;-76
2020/12/02 08:51:13;;;;;;;4.18;2.10;;;5.80;65.00;;;;;;5019022;28;20026;-77
2020/12/02 08:53:40;;;;;;;4.13;2.50;;;;;;;;;;5013657;28;20064;-76
2020/12/02 08:56:13;;;;;;;6.63;1.85;;;;;;;;;;5012094;28;20045;-76
2020/12/02 08:58:39;;;;;;;6.00;2.22;;;;;;;;;;5013478;28;20385;-75
2020/12/02 09:01:06;;;;;;;3.83;2.58;;;;;;;;;;5017279;28;20470;-77
2020/12/02 09:03:32;;;;;;;2.92;1.52;;;;;;;;;;5013866;28;20104;-76
2020/12/02 09:05:59;;;;;;;5.15;2.75;;;5.90;87.30;;;;;;5014252;28;20120;-77
2020/12/02 09:08:25;;;;;;;2.75;2.20;;;;;;;;;;5012976;28;20029;-76
2020/12/02 09:10:51;;;;;;;3.25;1.67;;;;;;;;;;5009112;28;20038;-77
2020/12/02 09:13:17;;;;;;;3.28;2.22;;;;;;;;;;5011175;28;20033;-76
2020/12/02 09:15:43;;;;;;;3.28;1.65;;;5.80;61.50;;;;;;5013778;28;20033;-76
2020/12/02 09:18:09;;;;;;;1.50;1.23;;;;;;;;;;5012272;28;20060;-77
2020/12/02 09:20:35;;;;;;;2.30;1.73;;;;;;;;;;5010319;28;20041;-77
2020/12/02 09:23:01;;;;;;;2.13;1.92;;;;;;;;;;5012118;28;20029;-77
2020/12/02 09:25:28;;;;;;;1.70;1.60;;;;;;;;;;5014232;28;20032;-77
2020/12/02 09:27:54;;;;;;;3.20;1.60;;;;;;;;;;5014643;28;20037;-77
2020/12/02 09:30:20;;;;;;;4.25;1.75;;;;;;;;;;5011619;28;20087;-77
2020/12/02 09:32:46;;;;;;;4.25;1.98;;;;;;;;;;5012301;28;20022;-77
2020/12/02 09:35:12;;;;;;;1.55;1.00;;;;;;;;;;5011280;28;20026;-77
2020/12/02 09:37:38;;;;;;;2.65;1.42;;;;;;;;;;5013394;28;20030;-77
2020/12/02 09:40:06;;;;;;;2.67;1.40;;;5.30;64.00;;;;;;5011929;28;20371;-77
2020/12/02 09:43:14;;;;;;;4.53;1.45;;;5.20;64.20;;;;;;5013993;28;20401;-76
2020/12/02 09:46:03;;;;;;;1.88;1.42;;;4.90;64.50;;;;;;5011496;28;20571;-76
2020/12/02 09:48:29;;;;;;;1.25;1.15;;;;;;;;;;5010274;28;20031;-76
2020/12/02 09:50:55;;;;;;;3.90;1.05;;;;;;;;;;5015437;28;20026;-76
2020/12/02 09:53:27;;;;;;;3.30;1.73;;;4.50;65.20;;;;;;5014758;28;20029;-76
2020/12/02 09:55:53;;;;;;;20.23;1.77;;;;;;;;;;5014628;28;20573;-76
2020/12/02 09:58:19;;;;;;;2.22;1.70;;;;;;;;;;5013171;28;20068;-76
2020/12/02 10:00:45;;;;;;;2.33;1.52;;;;;;;;;;5013909;28;20610;-76
2020/12/02 10:03:11;;;;;;;7.22;1.88;;;;;;;;;;5012600;28;20033;-76
2020/12/02 10:05:47;;;;;;;2.08;1.45;;;;;;;;;;5012901;28;20119;-76
2020/12/02 10:08:50;;;;;;;2.40;1.35;;;4.50;64.00;;;;;;5014272;28;20025;-76
2020/12/02 10:12:08;;;;;;;2.53;1.60;;;4.50;63.50;;;;;;4999795;28;20125;-76
2020/12/02 10:14:34;;;;;;;1.13;0.70;;;;;;;;;;4991872;28;20464;-77
2020/12/02 10:17:00;;;;;;;2.40;1.30;;;;;;;;;;5016218;28;20030;-77
2020/12/02 10:19:29;;;;;;;1.27;0.98;;;;;;;;;;5011056;28;20383;-77
2020/12/02 10:22:20;;;;;;;1.73;1.48;;;4.80;62.00;;;;;;5012603;28;20497;-77
2020/12/02 10:25:07;;;;;;;1.92;1.02;;;4.60;85.90;;;;;;5005530;28;20046;-77
2020/12/02 10:27:54;;;;;;;4.68;1.35;;;5.00;60.60;;;;;;5009136;28;20022;-75
2020/12/02 10:30:23;;;;;;;;;;;5.10;61.00;;;;;;5018831;28;20125;-76
2020/12/02 10:33:23;;;;;;;1.25;0.80;;;5.00;61.00;;;;;;5008396;28;19963;-76
2020/12/02 10:35:50;;;;;;;1.48;1.38;;;;;;;;;;5013284;28;20052;-76
2020/12/02 10:38:40;;;;;;;4.13;1.63;;;5.20;61.00;;;;;;5012758;28;20029;-76
2020/12/02 10:41:19;;;;;;;1.75;1.30;;;5.20;59.90;;;;;;5011650;28;20036;-76
2020/12/02 10:43:59;;;;;;;1.27;0.82;;;5.00;67.90;;;;;;5005489;28;20034;-76
2020/12/02 10:46:36;;;;;;;3.65;1.40;;;5.20;61.80;;;;;;5011804;28;20397;-76
2020/12/02 10:49:16;;;;;;;2.92;1.45;;;5.20;63.10;;;;;;5012227;28;20029;-76
2020/12/02 10:51:45;;;;;;;1.55;1.08;;;5.30;61.20;;;;;;5009617;28;20033;-77
2020/12/02 10:54:14;;;;;;;1.33;1.20;;;5.30;61.00;;;;;;5012732;28;20033;-77
2020/12/02 10:56:42;;;;;;;3.80;1.52;;;5.80;61.40;;;;;;5011500;28;20575;-77
2020/12/02 10:59:10;;;;;;;7.05;1.88;;;;;;;;;;5011565;28;20022;-76
2020/12/02 11:01:37;;;;;;;4.93;2.45;;;;;;;;;;5012914;28;20061;-76
2020/12/02 11:04:06;;;;;;;2.90;1.48;;;6.60;80.70;;;;;;5010115;28;20030;-77
2020/12/02 11:06:40;;;;;;;2.03;1.63;;;6.60;54.80;;;;;;5011277;28;20029;-77
2020/12/02 11:09:19;;;;;;;2.70;1.30;;;6.80;54.90;;;;;;5008905;28;20087;-76
2020/12/02 11:11:53;;;;;;;1.85;1.25;;;7.00;76.20;;;;;;5010239;28;20018;-77
2020/12/02 11:14:54;;;;;;;1.75;1.17;;;7.10;53.10;;;;;;5011226;28;20021;-76
2020/12/02 11:17:35;;;;;;;2.35;0.93;;;7.10;51.90;;;;;;5006537;28;20035;-76
2020/12/02 11:20:14;;;;;;;1.25;1.13;;;7.10;53.80;;;;;;5010485;28;20105;-77
2020/12/02 11:22:46;;;;;;;5.68;2.00;;;6.90;76.50;;;;;;5018232;28;20441;-76
2020/12/02 11:25:16;;;;;;;3.40;1.45;;;7.00;74.30;;;;;;5011807;28;20026;-77
2020/12/02 11:27:45;;;;;;;4.35;2.42;;;7.30;50.80;;;;;;5013940;28;20030;-76
2020/12/02 11:30:25;;;;;;;3.97;1.98;;;7.20;67.50;;;;;;5010108;28;20129;-77
2020/12/02 11:33:15;;;;;;;2.30;1.48;;;7.30;51.80;;;;;;5009844;28;20547;-76
2020/12/02 11:35:50;;;;;;;1.25;0.98;;;7.60;51.40;;;;;;5004514;28;20101;-77
2020/12/02 11:38:25;;;;;;;1.20;0.95;;;7.60;76.10;;;;;;5011731;28;20052;-77
2020/12/02 11:41:32;;;;;;;1.35;1.05;;;7.80;50.80;;;;;;5010639;28;20100;-77
2020/12/02 11:44:08;;;;;;;1.17;1.08;;;7.30;52.60;;;;;;5010062;28;20037;-75
2020/12/02 11:46:34;;;;;;;3.22;1.33;;;6.80;77.00;;;;;;5012150;28;20534;-76
2020/12/02 11:49:13;;;;;;;1.77;1.23;;;7.00;74.60;;;;;;5014957;28;20022;-77
2020/12/02 11:51:53;;;;;;;6.47;1.80;;;7.30;59.90;;;;;;5012839;28;20030;-77
2020/12/02 11:54:21;;;;;;;2.92;1.30;;;7.10;74.70;;;;;;5015732;28;20018;-76
2020/12/02 11:56:51;;;;;;;5.28;2.90;;;7.40;75.70;;;;;;5013888;28;20416;-77
2020/12/02 11:59:27;;;;;;;13.15;6.00;;;7.50;53.70;;;;;;5013297;28;20036;-77
2020/12/02 12:01:54;;;;;;;4.05;2.55;;;;;;;;;;5013887;28;20076;-76
2020/12/02 12:04:29;;;;;;;2.35;2.00;;;;;;;;;;5015325;28;20018;-77
2020/12/02 12:07:00;;;;;;;6.30;2.53;;;6.90;54.60;;;;;;5014831;28;20032;-76
2020/12/02 12:09:34;;;;;;;2.22;1.30;;;6.90;53.60;;;;;;5012463;28;20029;-76
2020/12/02 12:12:09;;;;;;;1.88;1.63;;;6.90;78.10;;;;;;5013838;28;20026;-77
2020/12/02 12:14:48;;;;;;;2.17;1.50;;;6.90;54.70;;;;;;5004487;28;20026;-77
2020/12/02 12:17:32;;;;;;;4.88;1.30;;;7.00;53.70;;;;;;5013710;28;20030;-76
2020/12/02 12:20:05;;;;;;;1.95;1.25;;;7.00;53.40;;;;;;5013061;28;20030;-77
2020/12/02 12:22:37;;;;;;;3.38;1.80;;;7.10;54.40;;;;;;5018544;28;20113;-76
2020/12/02 12:25:12;;;;;;;4.95;2.47;;;7.30;65.10;;;;;;5015166;28;20041;-75
2020/12/02 12:27:41;;;;;;;8.95;2.35;;;7.20;54.20;;;;;;5013922;28;20030;-76
2020/12/02 12:30:08;;;;;;;2.80;1.73;;;7.30;52.50;;;;;;5013389;28;20026;-76
2020/12/02 12:32:39;;;;;;;2.55;1.00;;;7.40;75.50;;;;;;5013032;28;20033;-76
2020/12/02 12:35:15;;;;;;;0.80;0.80;;;7.40;74.70;;;;;;5013307;28;20033;-76
2020/12/02 12:38:03;;;;;;;4.07;1.30;;;7.40;51.10;;;;;;5013962;28;20026;-76
2020/12/02 12:40:37;;;;;;;1.00;0.90;;;7.50;51.70;;;;;;5013402;28;20157;-76
2020/12/02 12:43:06;;;;;;;2.75;0.90;;;7.30;51.00;;;;;;5012679;28;20509;-76
2020/12/02 12:45:42;;;;;;;1.33;1.05;;;7.30;51.70;;;;;;5013683;28;20036;-77
2020/12/02 12:48:14;;;;;;;1.60;1.15;;;7.40;52.20;;;;;;5018699;28;20909;-75
2020/12/02 12:50:45;;;;;;;1.65;1.27;;;7.50;75.60;;;;;;5017423;28;20025;-77
2020/12/02 12:53:13;;;;;;;2.33;1.23;;;7.40;75.00;;;;;;5020082;28;20025;-76
2020/12/02 12:55:39;;;;;;;1.52;1.05;;;;;;;;;;5014430;28;20014;-75
2020/12/02 12:58:11;;;;;;;2.15;1.00;;;7.10;77.40;;;;;;5018101;28;20034;-76
2020/12/02 13:00:46;;;;;;;3.08;1.42;;;6.70;53.50;;;;;;5015750;28;20029;-76
2020/12/02 13:03:22;;;;;;;2.80;1.40;;;6.80;72.70;;;;;;5013377;28;20033;-76
2020/12/02 13:05:59;;;;;;;7.07;0.93;;;7.00;53.30;;;;;;5013828;28;20417;-76
2020/12/02 13:08:38;;;;;;;2.72;1.25;;;7.00;53.40;;;;;;5014160;28;20733;-76
2020/12/02 13:11:11;;;;;;;2.05;1.15;;;7.10;53.90;;;;;;5013097;28;20034;-75
2020/12/02 13:13:49;;;;;;;1.83;1.42;;;7.20;54.50;;;;;;5013297;28;20057;-75
2020/12/02 13:16:36;;;;;;;3.20;2.03;;;7.20;53.50;;;;;;5008495;28;20105;-76
2020/12/02 13:19:18;;;;;;;12.07;4.20;;;7.30;53.60;;;;;;5012750;28;20421;-76
2020/12/02 13:21:55;;;;;;;6.60;2.90;;;7.10;53.70;;;;;;5011678;28;20113;-76
2020/12/02 13:24:30;;;;;;;;;;;7.10;53.80;;;;;;5014640;28;20022;-76
2020/12/02 13:27:11;;;;;;;2.17;1.95;;;7.20;52.90;;;;;;5020236;28;20438;-76
2020/12/02 13:30:01;;;;;;;2.20;1.95;;;7.30;53.50;;;;;;5014202;28;20037;-77
2020/12/02 13:32:36;;;;;;;4.57;2.00;;;7.60;76.80;;;;;;5006926;28;20053;-75
2020/12/02 13:35:02;;;;;;;5.43;2.75;;;;;;;;;;5000783;28;20474;-77
2020/12/02 13:37:28;;;;;;;4.13;2.22;;;7.30;53.90;;;;;;5012847;28;20026;-76
2020/12/02 13:39:54;;;;;;;2.15;1.45;;;;;;;;;;5011763;28;20026;-75
2020/12/02 13:42:20;;;;;;;6.13;1.80;;;6.90;78.40;;;;;;5009026;28;20044;-76
2020/12/02 13:44:58;;;;;;;2.25;1.80;;;6.90;54.00;;;;;;5016958;28;20168;-76
2020/12/02 13:47:24;;;;;;;5.80;2.22;;;6.80;77.50;;;;;;5012625;28;20104;-76
2020/12/02 13:49:50;;;;;;;2.60;1.65;;;6.90;57.70;;;;;;5018085;28;20026;-76
2020/12/02 13:52:24;;;;;;;3.67;2.28;;;6.90;54.60;;;;;;5012312;28;20164;-76
2020/12/02 13:55:12;;;;;;;4.20;1.85;;;6.90;54.10;;;;;;5018935;28;20025;-77
2020/12/02 13:58:07;;;;;;;2.75;1.77;;;6.80;68.80;;;;;;5017589;28;20049;-76
2020/12/02 14:00:55;;;;;;;1.65;0.90;;;6.80;53.90;;;;;;5010109;28;20034;-76
2020/12/02 14:03:50;;;;;;;8.07;2.25;;;6.60;63.00;;;;;;5010490;28;20069;-77